Time;durP1;ratioP1;P1;durP2;ratioP2;P2;SDS_P1;SDS_P2;PMS_P1;PMS_P2;Temp;Humidity;BMP_temperature;BMP_pressure;BME280_temperature;BME280_humidity;BME280_pressure;Samples;Min_cycle;Max_cycle;Signal;HPM_P1;HPM_P2
2022/06/06 00:00:45;;;;;;;5.75;5.25;;;18.30;99.90;;;;;;5113689;28;20196;-73
2022/06/06 00:03:12;;;;;;;5.88;5.38;;;18.30;99.90;;;;;;5114582;28;20213;-73
2022/06/06 00:05:42;;;;;;;6.00;5.40;;;18.20;99.90;;;;;;5114782;28;20201;-73
2022/06/06 00:08:11;;;;;;;5.47;4.97;;;18.20;99.90;;;;;;5114272;27;20639;-73
2022/06/06 00:10:39;;;;;;;5.70;5.07;;;18.20;99.90;;;;;;5114419;28;20215;-73
2022/06/06 00:13:08;;;;;;;5.97;5.18;;;18.10;99.90;;;;;;5114232;27;20628;-73
2022/06/06 00:15:35;;;;;;;6.22;5.03;;;18.10;99.90;;;;;;5113720;28;20211;-73
2022/06/06 00:18:02;;;;;;;6.28;5.10;;;18.10;99.90;;;;;;5114418;28;20201;-73
2022/06/06 00:20:30;;;;;;;6.50;4.90;;;18.10;99.90;;;;;;5113658;28;20563;-73
2022/06/06 00:22:57;;;;;;;6.18;4.72;;;18.00;99.90;;;;;;5114375;27;20224;-73
2022/06/06 00:25:24;;;;;;;5.97;4.57;;;18.00;99.90;;;;;;5114200;28;20558;-73
2022/06/06 00:27:51;;;;;;;7.30;5.20;;;18.10;99.90;;;;;;5114065;28;20193;-73
2022/06/06 00:30:20;;;;;;;5.07;4.57;;;18.10;99.90;;;;;;5113619;28;20207;-73
2022/06/06 00:35:31;;;;;;;6.25;4.93;;;18.00;99.90;;;;;;5113761;28;20207;-72
2022/06/06 00:37:58;;;;;;;4.63;4.22;;;17.80;99.90;;;;;;5113871;28;20204;-73
2022/06/06 00:40:26;;;;;;;5.38;4.53;;;17.90;99.90;;;;;;5113970;28;20197;-73
2022/06/06 00:42:53;;;;;;;5.57;4.72;;;17.70;99.90;;;;;;5113543;28;20224;-73
2022/06/06 00:45:33;;;;;;;6.75;4.95;;;17.70;99.90;;;;;;5113778;28;20288;-73
2022/06/06 00:48:18;;;;;;;5.50;5.00;;;17.60;99.90;;;;;;5113965;28;20207;-73
2022/06/06 00:50:51;;;;;;;6.40;4.80;;;17.50;99.90;;;;;;5113482;28;20283;-73
2022/06/06 00:53:32;;;;;;;5.40;4.90;;;17.50;99.90;;;;;;5113555;28;20550;-72
2022/06/06 00:56:03;;;;;;;5.22;4.72;;;17.50;99.90;;;;;;5113646;28;20204;-72
2022/06/06 00:58:32;;;;;;;5.35;4.60;;;17.50;99.90;;;;;;5113416;28;20201;-73
2022/06/06 01:01:01;;;;;;;5.35;4.60;;;17.50;99.90;;;;;;5112924;28;20611;-73
2022/06/06 01:03:29;;;;;;;6.20;5.18;;;17.50;99.90;;;;;;5113004;28;20609;-73
2022/06/06 01:05:58;;;;;;;5.07;4.63;;;17.50;99.90;;;;;;5113710;28;20571;-72
2022/06/06 01:08:26;;;;;;;4.97;4.32;;;17.50;99.90;;;;;;5113329;28;20208;-73
2022/06/06 01:10:53;;;;;;;5.55;4.57;;;17.50;99.90;;;;;;5113148;28;20200;-73
2022/06/06 01:13:23;;;;;;;5.93;4.72;;;17.60;99.90;;;;;;5112766;28;20213;-73
2022/06/06 01:16:20;;;;;;;5.15;4.57;;;17.60;99.90;;;;;;5113442;28;20205;-74
2022/06/06 01:19:02;;;;;;;5.68;4.90;;;17.60;99.90;;;;;;5111226;28;20197;-72
2022/06/06 01:21:54;;;;;;;4.68;4.25;;;17.60;99.90;;;;;;5092979;28;20209;-72
2022/06/06 01:24:48;;;;;;;5.93;5.07;;;17.60;99.90;;;;;;5097660;28;20209;-72
2022/06/06 01:27:38;;;;;;;5.13;4.60;;;17.60;99.90;;;;;;5106889;28;20203;-73
2022/06/06 01:30:09;;;;;;;4.97;4.53;;;17.60;99.90;;;;;;5104421;28;20239;-72
2022/06/06 01:32:41;;;;;;;5.32;4.82;;;17.60;99.90;;;;;;5112833;28;20197;-73
2022/06/06 01:35:09;;;;;;;5.85;5.25;;;17.60;99.90;;;;;;5112879;28;20577;-72
2022/06/06 01:37:39;;;;;;;5.30;4.80;;;17.60;99.90;;;;;;5106206;28;20204;-72
2022/06/06 01:40:10;;;;;;;5.40;4.90;;;17.60;99.90;;;;;;5110257;28;20193;-72
2022/06/06 01:42:46;;;;;;;5.88;4.95;;;17.70;99.90;;;;;;5110954;28;20223;-73
2022/06/06 01:45:20;;;;;;;6.38;4.60;;;17.60;99.90;;;;;;5105863;28;20208;-72
2022/06/06 01:47:51;;;;;;;7.38;5.28;;;17.60;99.90;;;;;;5112379;28;20192;-72
2022/06/06 01:50:19;;;;;;;5.68;4.72;;;17.60;99.90;;;;;;5108387;28;20197;-73
2022/06/06 01:52:58;;;;;;;5.72;5.20;;;17.50;99.90;;;;;;5112291;28;20193;-73
2022/06/06 01:55:26;;;;;;;5.95;4.95;;;17.50;99.90;;;;;;5101151;28;20648;-72
2022/06/06 01:57:56;;;;;;;6.70;5.13;;;17.40;99.90;;;;;;5109964;28;20204;-73
2022/06/06 02:00:25;;;;;;;6.97;6.10;;;17.50;99.90;;;;;;5104059;28;20208;-72
2022/06/06 02:02:52;;;;;;;10.70;6.40;;;17.50;99.90;;;;;;5110694;28;20570;-72
2022/06/06 02:05:20;;;;;;;8.07;6.03;;;17.50;99.90;;;;;;5110189;28;20566;-72
2022/06/06 02:07:47;;;;;;;9.77;6.63;;;17.50;99.90;;;;;;5095164;28;20255;-72
2022/06/06 02:10:16;;;;;;;9.00;7.15;;;17.50;99.90;;;;;;5103567;28;20296;-72
2022/06/06 02:12:43;;;;;;;9.50;7.75;;;17.50;99.90;;;;;;5106980;28;20208;-72
2022/06/06 02:15:12;;;;;;;8.63;7.45;;;17.50;99.90;;;;;;5117842;27;20204;-71
2022/06/06 02:17:41;;;;;;;10.73;8.02;;;17.50;99.90;;;;;;5111565;28;20201;-71
2022/06/06 02:20:11;;;;;;;8.77;7.25;;;17.40;99.90;;;;;;5102253;28;20206;-70
2022/06/06 02:22:38;;;;;;;11.00;8.20;;;17.40;99.90;;;;;;5098299;28;20201;-71
2022/06/06 02:25:07;;;;;;;9.73;8.10;;;17.40;99.90;;;;;;5112002;28;20709;-71
2022/06/06 02:27:34;;;;;;;9.00;7.40;;;17.40;99.90;;;;;;5103847;28;20651;-71
2022/06/06 02:30:01;;;;;;;11.05;8.02;;;17.40;99.90;;;;;;5111058;28;20284;-71
2022/06/06 02:32:28;;;;;;;9.27;7.60;;;17.40;99.90;;;;;;5099643;28;20205;-71
2022/06/06 02:34:56;;;;;;;9.80;8.00;;;17.40;99.90;;;;;;5112329;28;20181;-71
2022/06/06 02:37:23;;;;;;;10.13;7.90;;;17.40;99.90;;;;;;5097527;28;20217;-71
2022/06/06 02:39:50;;;;;;;9.38;7.80;;;17.30;99.90;;;;;;5097410;28;20679;-71
2022/06/06 02:42:17;;;;;;;9.98;7.95;;;17.30;99.90;;;;;;5104360;28;20213;-71
2022/06/06 02:44:44;;;;;;;9.55;7.60;;;17.30;99.90;;;;;;5095515;28;20222;-71
2022/06/06 02:47:12;;;;;;;12.50;8.43;;;17.30;99.90;;;;;;5107402;27;20213;-71
2022/06/06 02:49:39;;;;;;;10.95;7.60;;;17.30;99.90;;;;;;5109539;28;20216;-71
2022/06/06 02:52:08;;;;;;;11.02;8.00;;;17.30;99.90;;;;;;5115934;28;20223;-71
2022/06/06 02:54:35;;;;;;;8.70;7.30;;;17.30;99.90;;;;;;5111450;28;20204;-71
2022/06/06 02:57:03;;;;;;;9.02;7.60;;;17.30;99.90;;;;;;5114434;28;20661;-71
2022/06/06 02:59:33;;;;;;;11.95;8.25;;;17.30;99.90;;;;;;5112592;28;20205;-71
2022/06/06 03:02:00;;;;;;;10.77;7.78;;;17.20;99.90;;;;;;5109606;28;20201;-71
2022/06/06 03:04:27;;;;;;;9.77;7.43;;;17.30;99.90;;;;;;5094272;28;20302;-71
2022/06/06 03:07:03;;;;;;;10.00;8.20;;;17.30;99.90;;;;;;5109167;27;20265;-71
2022/06/06 03:09:42;;;;;;;9.55;7.72;;;17.30;99.90;;;;;;5122987;27;20203;-71
2022/06/06 03:12:34;;;;;;;9.43;8.15;;;17.20;99.90;;;;;;5114967;28;20569;-71
2022/06/06 03:15:19;;;;;;;11.00;8.30;;;17.30;99.90;;;;;;5113950;28;20204;-71
2022/06/06 03:21:20;;;;;;;11.50;8.18;;;17.40;99.90;;;;;;5096704;28;20266;-71
2022/06/06 03:24:01;;;;;;;12.65;8.68;;;17.40;99.90;;;;;;5098150;28;20205;-71
2022/06/06 03:26:43;;;;;;;14.30;9.70;;;17.30;99.90;;;;;;5107761;28;20204;-71
2022/06/06 03:29:25;;;;;;;14.57;10.10;;;17.30;99.90;;;;;;5113731;27;20193;-71
2022/06/06 03:31:59;;;;;;;13.10;10.10;;;17.40;99.90;;;;;;5094533;28;20565;-71
2022/06/06 03:34:34;;;;;;;16.55;10.05;;;17.30;99.90;;;;;;5107870;28;20589;-71
2022/06/06 03:37:10;;;;;;;14.43;9.85;;;17.30;99.90;;;;;;5094780;28;20207;-71
2022/06/06 03:39:47;;;;;;;15.05;10.55;;;17.40;99.90;;;;;;5109276;28;20228;-71
2022/06/06 03:42:25;;;;;;;15.05;10.45;;;17.30;99.90;;;;;;5092419;28;20205;-71
2022/06/06 03:45:02;;;;;;;15.95;11.00;;;17.30;99.90;;;;;;5101309;28;20494;-71
2022/06/06 03:47:42;;;;;;;16.45;9.80;;;17.30;99.90;;;;;;5095403;28;20212;-71
2022/06/06 03:50:20;;;;;;;14.55;10.13;;;17.30;99.90;;;;;;5113808;27;20249;-71
2022/06/06 03:52:53;;;;;;;13.05;9.63;;;17.30;99.90;;;;;;5127864;27;20203;-71
2022/06/06 03:55:33;;;;;;;13.38;10.43;;;17.40;99.90;;;;;;5113311;28;20197;-71
2022/06/06 03:58:03;;;;;;;11.43;8.38;;;17.30;99.90;;;;;;5102526;28;20243;-71
2022/06/06 04:00:30;;;;;;;12.23;8.25;;;17.30;99.90;;;;;;5103349;28;20217;-71
2022/06/06 04:02:58;;;;;;;8.68;7.05;;;17.40;99.90;;;;;;5101134;28;20680;-71
2022/06/06 04:05:25;;;;;;;9.55;7.45;;;17.40;99.90;;;;;;5104722;27;20228;-71
2022/06/06 04:07:52;;;;;;;11.23;7.82;;;17.30;99.90;;;;;;5103365;28;20564;-71
2022/06/06 04:10:19;;;;;;;10.30;7.43;;;17.40;99.90;;;;;;5106979;27;20201;-71
2022/06/06 04:13:12;;;;;;;12.32;7.97;;;17.40;99.90;;;;;;5097439;27;20208;-71
2022/06/06 04:15:52;;;;;;;12.02;8.52;;;17.50;99.90;;;;;;5105847;28;20254;-71
2022/06/06 04:18:33;;;;;;;12.90;9.00;;;17.50;99.90;;;;;;5102021;28;20203;-71
2022/06/06 04:21:12;;;;;;;12.65;8.93;;;17.50;99.90;;;;;;5099417;27;20323;-71
2022/06/06 04:24:04;;;;;;;10.35;8.05;;;17.60;99.90;;;;;;5102017;28;20234;-71
2022/06/06 04:26:41;;;;;;;12.07;8.25;;;17.60;99.90;;;;;;5100765;28;20200;-71
2022/06/06 04:29:17;;;;;;;14.20;9.65;;;17.60;99.90;;;;;;5102046;28;20208;-71
2022/06/06 04:31:52;;;;;;;17.58;10.27;;;17.50;99.90;;;;;;5104431;27;20192;-71
2022/06/06 04:34:27;;;;;;;15.80;10.40;;;17.40;99.90;;;;;;5100056;28;20681;-71
2022/06/06 04:37:05;;;;;;;17.67;11.73;;;17.40;99.90;;;;;;5105292;27;20681;-71
2022/06/06 04:39:39;;;;;;;18.17;11.65;;;17.30;99.90;;;;;;5102960;27;20197;-71
2022/06/06 04:42:12;;;;;;;19.25;12.40;;;17.30;99.90;;;;;;5106090;28;20245;-71
2022/06/06 04:44:45;;;;;;;22.15;13.15;;;17.40;99.90;;;;;;5100506;28;20232;-71
2022/06/06 04:47:18;;;;;;;21.02;12.35;;;17.30;99.90;;;;;;5106924;27;20197;-71
2022/06/06 04:49:47;;;;;;;19.58;12.90;;;17.30;99.90;;;;;;5105275;28;20198;-71
2022/06/06 04:52:15;;;;;;;18.83;12.55;;;17.30;99.90;;;;;;5099258;28;20201;-71
2022/06/06 04:54:45;;;;;;;18.27;12.05;;;17.30;99.90;;;;;;5107684;28;20662;-71
2022/06/06 04:57:14;;;;;;;18.15;12.20;;;17.30;99.90;;;;;;5103160;28;20201;-71
2022/06/06 04:59:44;;;;;;;18.40;12.27;;;17.30;99.90;;;;;;5107475;27;20212;-72
2022/06/06 05:02:10;;;;;;;19.02;11.60;;;17.40;99.90;;;;;;5102001;28;20204;-71
2022/06/06 05:04:37;;;;;;;17.90;11.73;;;17.40;99.90;;;;;;5106159;28;20222;-72
2022/06/06 05:07:26;;;;;;;18.88;12.77;;;17.40;99.90;;;;;;5104086;28;20207;-72
2022/06/06 05:10:22;;;;;;;21.30;12.98;;;17.40;99.90;;;;;;5104723;28;20201;-71
2022/06/06 05:13:27;;;;;;;20.67;13.82;;;17.50;99.90;;;;;;5096416;28;20205;-71
2022/06/06 05:16:20;;;;;;;18.95;12.70;;;17.50;99.90;;;;;;5098247;28;20677;-71
2022/06/06 05:19:08;;;;;;;23.00;14.95;;;17.50;99.90;;;;;;5106257;28;20205;-72
2022/06/06 05:21:47;;;;;;;23.30;14.07;;;17.60;99.90;;;;;;5103792;28;20571;-71
2022/06/06 05:24:42;;;;;;;21.70;13.90;;;17.60;99.90;;;;;;5102844;28;20221;-72
2022/06/06 05:27:28;;;;;;;19.63;13.40;;;17.50;99.90;;;;;;5101679;28;20200;-71
2022/06/06 05:30:11;;;;;;;20.08;13.02;;;17.40;99.90;;;;;;5117874;27;20201;-71
2022/06/06 05:33:02;;;;;;;17.90;12.20;;;17.50;99.90;;;;;;5101020;27;20205;-72
2022/06/06 05:35:50;;;;;;;19.15;12.02;;;17.60;99.90;;;;;;5100133;28;20189;-71
2022/06/06 05:38:32;;;;;;;16.02;10.85;;;17.80;99.90;;;;;;5097250;28;20198;-71
2022/06/06 05:41:08;;;;;;;15.95;10.65;;;18.00;99.90;;;;;;5102522;28;20201;-71
2022/06/06 05:43:41;;;;;;;15.40;10.73;;;18.50;99.90;;;;;;5105605;28;20202;-71
2022/06/06 05:46:21;;;;;;;15.45;10.65;;;18.40;99.90;;;;;;5107370;27;20583;-71
2022/06/06 05:49:15;;;;;;;15.98;10.43;;;18.40;99.90;;;;;;5098066;28;20219;-72
2022/06/06 05:51:50;;;;;;;17.23;11.70;;;18.20;99.90;;;;;;5100862;28;20654;-72
2022/06/06 05:54:39;;;;;;;18.98;11.18;;;18.20;99.90;;;;;;5108077;27;20199;-72
2022/06/06 05:57:30;;;;;;;18.17;11.55;;;18.20;99.90;;;;;;5098675;27;20208;-71
2022/06/06 06:00:16;;;;;;;19.42;11.77;;;18.00;99.90;;;;;;5104968;28;20561;-71
2022/06/06 06:03:16;;;;;;;19.55;11.80;;;18.00;99.90;;;;;;5101022;28;20230;-72
2022/06/06 06:05:59;;;;;;;22.25;12.45;;;17.90;99.90;;;;;;5100928;28;20716;-72
2022/06/06 06:08:41;;;;;;;18.95;12.30;;;18.20;99.90;;;;;;5100691;28;20615;-71
2022/06/06 06:11:21;;;;;;;20.23;12.52;;;18.10;99.90;;;;;;5099772;28;20203;-71
2022/06/06 06:14:02;;;;;;;19.95;13.18;;;18.10;99.90;;;;;;5107322;28;20262;-71
2022/06/06 06:16:35;;;;;;;20.98;12.57;;;18.00;99.90;;;;;;5101941;28;20694;-71
2022/06/06 06:19:08;;;;;;;20.73;13.07;;;18.10;99.90;;;;;;5108352;28;20201;-71
2022/06/06 06:21:41;;;;;;;18.45;11.73;;;18.30;99.90;;;;;;5102672;28;20564;-71
2022/06/06 06:24:10;;;;;;;18.65;11.85;;;18.40;99.90;;;;;;5106031;27;20225;-72
2022/06/06 06:26:38;;;;;;;19.77;11.90;;;18.60;99.90;;;;;;5099510;28;20204;-72
2022/06/06 06:29:08;;;;;;;18.40;11.90;;;18.60;99.90;;;;;;5108680;27;20196;-71
2022/06/06 06:31:51;;;;;;;17.27;11.95;;;18.60;99.90;;;;;;5107051;28;20224;-72
2022/06/06 06:34:38;;;;;;;17.08;12.05;;;18.50;99.90;;;;;;5104346;27;20684;-71
2022/06/06 06:37:22;;;;;;;15.88;11.23;;;18.50;99.90;;;;;;5106330;28;20662;-71
2022/06/06 06:40:03;;;;;;;16.85;10.73;;;18.60;99.90;;;;;;5106076;28;20212;-71
2022/06/06 06:42:51;;;;;;;17.50;10.63;;;18.90;99.90;;;;;;5104655;28;20193;-72
2022/06/06 06:45:23;;;;;;;14.77;9.68;;;19.10;99.90;;;;;;5109136;28;20217;-72
2022/06/06 06:47:53;;;;;;;14.95;9.82;;;19.10;99.90;;;;;;5108249;27;20212;-72
2022/06/06 06:50:23;;;;;;;13.40;9.02;;;19.10;99.90;;;;;;5107636;28;20204;-71
2022/06/06 06:53:08;;;;;;;12.98;9.30;;;18.90;99.90;;;;;;5100193;28;20201;-71
2022/06/06 06:55:47;;;;;;;15.00;9.70;;;19.10;99.90;;;;;;5111204;27;20198;-71
2022/06/06 06:58:31;;;;;;;11.73;8.88;;;19.10;99.90;;;;;;5103298;28;20762;-71
2022/06/06 07:01:03;;;;;;;12.52;8.30;;;18.80;99.90;;;;;;5103865;27;20292;-71
2022/06/06 07:09:37;;;;;;;11.00;7.80;;;19.00;99.90;;;;;;5096031;28;20687;-72
2022/06/06 07:12:21;;;;;;;12.90;8.52;;;19.20;99.90;;;;;;5105306;28;20211;-71
2022/06/06 07:15:19;;;;;;;11.63;8.05;;;19.20;99.90;;;;;;5104543;28;20201;-71
2022/06/06 07:17:50;;;;;;;11.52;7.50;;;19.20;99.90;;;;;;5115519;27;20194;-72
2022/06/06 07:20:19;;;;;;;12.07;7.75;;;19.30;99.90;;;;;;5107922;28;20203;-72
2022/06/06 07:23:02;;;;;;;11.25;8.07;;;19.30;99.90;;;;;;5103620;28;20206;-72
2022/06/06 07:25:37;;;;;;;12.98;8.48;;;19.20;99.90;;;;;;5098808;28;20714;-72
2022/06/06 07:28:04;;;;;;;12.50;8.15;;;19.40;99.90;;;;;;5103173;28;20655;-72
2022/06/06 07:30:35;;;;;;;13.02;9.10;;;19.30;99.90;;;;;;5104044;28;20557;-72
2022/06/06 07:33:19;;;;;;;13.10;9.00;;;19.50;99.90;;;;;;5098696;27;20206;-71
2022/06/06 07:35:58;;;;;;;11.63;7.65;;;19.60;99.90;;;;;;5106877;28;20189;-71
2022/06/06 07:38:37;;;;;;;10.30;7.38;;;19.50;99.90;;;;;;5104662;28;20201;-72
2022/06/06 07:41:26;;;;;;;11.95;7.40;;;19.60;99.90;;;;;;5104979;27;20222;-72
2022/06/06 07:44:05;;;;;;;11.55;8.15;;;19.70;99.90;;;;;;5115696;27;20473;-72
2022/06/06 07:46:45;;;;;;;11.05;7.63;;;19.70;99.90;;;;;;5114522;27;20246;-72
2022/06/06 07:49:20;;;;;;;10.77;7.75;;;20.00;99.90;;;;;;5125776;27;20203;-72
2022/06/06 07:51:54;;;;;;;11.05;7.35;;;20.10;99.90;;;;;;5115113;27;20209;-72
2022/06/06 07:54:47;;;;;;;11.80;7.45;;;20.30;99.90;;;;;;5114128;27;20573;-72
2022/06/06 07:57:23;;;;;;;11.07;7.15;;;19.90;99.90;;;;;;5115164;28;20196;-72
2022/06/06 07:59:58;;;;;;;10.95;7.18;;;20.20;99.90;;;;;;5108885;28;20204;-72
2022/06/06 08:02:50;;;;;;;11.38;7.88;;;20.00;99.90;;;;;;5099832;28;20197;-72
2022/06/06 08:05:35;;;;;;;10.85;7.30;;;20.00;99.90;;;;;;5101693;28;20202;-72
2022/06/06 08:08:09;;;;;;;11.35;7.70;;;20.10;99.90;;;;;;5103864;28;20204;-72
2022/06/06 08:10:41;;;;;;;12.82;7.38;;;20.10;99.90;;;;;;5117309;27;20204;-72
2022/06/06 08:13:30;;;;;;;10.32;7.32;;;20.10;99.90;;;;;;5113299;27;20209;-72
2022/06/06 08:16:07;;;;;;;8.13;6.10;;;20.50;99.90;;;;;;5104648;28;20195;-72
2022/06/06 08:18:59;;;;;;;12.18;6.93;;;20.90;99.90;;;;;;5114153;28;20242;-72
2022/06/06 08:21:30;;;;;;;8.45;6.30;;;21.20;99.90;;;;;;5099122;28;20258;-72
2022/06/06 08:24:05;;;;;;;11.45;7.22;;;20.90;99.90;;;;;;5093824;28;20289;-72
2022/06/06 08:26:37;;;;;;;11.27;7.05;;;20.60;99.90;;;;;;5094020;28;20306;-72
2022/06/06 08:29:08;;;;;;;7.82;5.90;;;20.30;99.90;;;;;;5093909;28;20330;-73
2022/06/06 08:31:35;;;;;;;7.32;5.80;;;20.00;99.90;;;;;;5106592;28;20209;-71
2022/06/06 08:34:02;;;;;;;8.80;5.80;;;20.00;99.90;;;;;;5093624;28;20217;-71
2022/06/06 08:36:46;;;;;;;6.97;5.25;;;20.00;99.90;;;;;;5092351;28;20201;-72
2022/06/06 08:39:23;;;;;;;9.00;5.82;;;20.30;99.90;;;;;;5091830;28;20288;-72
2022/06/06 08:42:24;;;;;;;7.40;5.30;;;20.20;99.90;;;;;;5092542;28;20213;-71
2022/06/06 08:45:06;;;;;;;8.38;5.78;;;20.30;99.90;;;;;;5079299;28;20205;-71
2022/06/06 08:47:42;;;;;;;7.60;5.43;;;20.70;99.90;;;;;;5098455;28;20204;-71
2022/06/06 08:50:45;;;;;;;6.18;5.25;;;20.80;99.90;;;;;;5101772;28;20197;-69
2022/06/06 08:53:52;;;;;;;7.45;6.07;;;20.80;99.90;;;;;;5092411;28;20197;-69
2022/06/06 08:56:56;;;;;;;7.75;5.90;;;20.80;99.90;;;;;;5093410;28;20198;-68
2022/06/06 08:59:49;;;;;;;8.10;6.05;;;20.80;99.90;;;;;;5092146;28;20584;-69
2022/06/06 09:02:51;;;;;;;8.25;5.13;;;20.80;99.90;;;;;;5069381;28;20646;-69
2022/06/06 09:05:42;;;;;;;7.38;5.72;;;21.60;99.90;;;;;;5100589;28;20224;-69
2022/06/06 09:08:43;;;;;;;8.05;5.15;;;21.70;99.90;;;;;;5110971;27;20200;-69
2022/06/06 09:11:59;;;;;;;7.43;5.20;;;22.10;99.90;;;;;;5109566;28;20249;-69
2022/06/06 09:14:56;;;;;;;7.65;4.80;;;22.90;99.50;;;;;;5010464;28;20212;-69
2022/06/06 09:17:52;;;;;;;5.97;4.95;;;23.10;97.10;;;;;;5089531;28;20201;-69
2022/06/06 09:20:47;;;;;;;6.63;4.30;;;23.00;97.30;;;;;;5092434;28;20217;-69
2022/06/06 09:23:50;;;;;;;4.90;3.80;;;22.80;94.40;;;;;;5106423;28;20205;-69
2022/06/06 09:26:25;;;;;;;5.80;4.40;;;22.30;87.20;;;;;;5104129;28;20221;-69
2022/06/06 09:29:31;;;;;;;5.35;4.05;;;21.70;91.30;;;;;;5092797;28;20201;-69
2022/06/06 09:32:27;;;;;;;4.07;3.65;;;22.10;94.10;;;;;;5091847;28;20205;-69
2022/06/06 09:35:25;;;;;;;5.93;3.50;;;22.20;90.40;;;;;;5092225;28;20194;-69
2022/06/06 09:38:09;;;;;;;3.80;3.42;;;22.80;89.80;;;;;;5092570;28;20225;-69
2022/06/06 09:40:57;;;;;;;3.60;3.20;;;23.40;84.10;;;;;;5091649;28;20558;-69
2022/06/06 09:43:45;;;;;;;3.42;3.10;;;23.40;69.10;;;;;;5091526;28;20213;-69
2022/06/06 09:47:00;;;;;;;3.38;3.05;;;22.90;75.30;;;;;;5092546;28;20320;-69
2022/06/06 09:50:04;;;;;;;3.90;3.47;;;23.50;70.70;;;;;;5091396;28;20202;-69
2022/06/06 09:53:26;;;;;;;4.10;3.20;;;24.50;69.60;;;;;;5092600;28;20539;-69
2022/06/06 09:59:51;;;;;;;3.70;3.10;;;23.20;69.60;;;;;;5102028;28;20219;-69
2022/06/06 10:02:52;;;;;;;3.78;2.92;;;22.60;73.90;;;;;;5116506;28;20573;-69
2022/06/06 10:06:03;;;;;;;3.20;2.90;;;22.30;76.10;;;;;;5107471;28;20792;-69
2022/06/06 10:09:27;;;;;;;4.55;3.15;;;22.20;77.40;;;;;;5089986;28;20232;-69
2022/06/06 10:12:52;;;;;;;4.57;3.28;;;22.00;71.80;;;;;;5045484;28;20204;-69
2022/06/06 10:15:40;;;;;;;3.50;3.08;;;22.00;71.00;;;;;;5099646;28;20204;-69
2022/06/06 10:18:40;;;;;;;4.00;3.17;;;21.80;75.70;;;;;;5111861;28;20210;-69
2022/06/06 10:21:43;;;;;;;4.20;3.28;;;21.50;77.30;;;;;;5116091;28;20586;-69
2022/06/06 10:24:22;;;;;;;3.42;3.13;;;21.60;79.10;;;;;;5044179;28;20563;-69
2022/06/06 10:26:58;;;;;;;3.88;3.47;;;21.80;81.90;;;;;;5091514;28;20585;-69
2022/06/06 10:30:12;;;;;;;3.17;2.78;;;22.80;77.30;;;;;;5091814;28;20726;-69
2022/06/06 10:33:11;;;;;;;4.90;2.60;;;22.90;71.90;;;;;;5092053;28;20209;-69
2022/06/06 10:35:54;;;;;;;4.97;2.80;;;23.50;61.40;;;;;;5091420;28;20202;-69
2022/06/06 10:38:51;;;;;;;2.90;2.60;;;23.80;56.60;;;;;;5091103;28;20208;-69
2022/06/06 10:41:30;;;;;;;3.03;2.72;;;23.40;56.40;;;;;;5065666;28;20213;-69
2022/06/06 10:44:18;;;;;;;4.07;3.00;;;22.70;58.60;;;;;;5091848;28;20201;-69
2022/06/06 10:46:57;;;;;;;3.20;2.90;;;23.10;63.90;;;;;;5090780;28;20597;-69
2022/06/06 10:49:34;;;;;;;3.22;2.67;;;23.10;61.20;;;;;;5091741;28;20735;-69
2022/06/06 10:52:46;;;;;;;2.85;2.60;;;23.30;60.40;;;;;;5091785;28;20205;-69
2022/06/06 10:55:55;;;;;;;3.35;3.05;;;23.50;55.70;;;;;;5091279;28;20205;-69
2022/06/06 10:58:55;;;;;;;3.60;2.72;;;23.50;55.60;;;;;;5091537;28;20207;-69
2022/06/06 11:02:04;;;;;;;3.17;2.83;;;23.50;56.90;;;;;;5094531;28;20296;-69
2022/06/06 11:05:13;;;;;;;3.00;2.70;;;23.90;55.00;;;;;;5094826;28;20212;-69
2022/06/06 11:08:12;;;;;;;3.22;2.92;;;24.60;51.10;;;;;;5095697;28;20552;-69
2022/06/06 11:11:04;;;;;;;4.18;2.75;;;25.00;52.50;;;;;;5093622;27;20202;-71
2022/06/06 11:13:46;;;;;;;2.30;2.10;;;24.20;50.50;;;;;;5127306;27;20204;-69
2022/06/06 11:16:45;;;;;;;2.00;1.90;;;24.80;44.80;;;;;;5115790;27;20200;-69
2022/06/06 11:20:01;;;;;;;2.33;1.80;;;25.10;39.20;;;;;;5072640;28;20205;-69
2022/06/06 11:22:33;;;;;;;1.90;1.73;;;25.40;36.00;;;;;;5012696;28;20213;-69
2022/06/06 11:25:07;;;;;;;2.45;2.22;;;25.50;36.20;;;;;;5088550;28;20197;-69
2022/06/06 11:28:13;;;;;;;3.30;2.08;;;25.90;36.10;;;;;;5094656;28;20232;-70
2022/06/06 11:31:00;;;;;;;2.47;2.28;;;25.60;34.00;;;;;;5049489;28;20208;-70
2022/06/06 11:34:07;;;;;;;4.30;2.40;;;24.90;32.20;;;;;;5094798;28;20648;-69
2022/06/06 11:37:13;;;;;;;3.05;2.72;;;25.10;33.80;;;;;;5100133;28;20313;-69
2022/06/06 11:40:15;;;;;;;2.15;1.95;;;25.30;37.20;;;;;;5091454;28;20208;-69
2022/06/06 11:43:12;;;;;;;2.10;2.00;;;24.60;30.50;;;;;;5114369;28;20677;-69
2022/06/06 11:46:17;;;;;;;2.42;2.22;;;23.70;31.00;;;;;;5114736;28;20216;-69
2022/06/06 11:49:15;;;;;;;2.33;2.08;;;23.60;34.80;;;;;;5114685;28;20246;-69
2022/06/06 11:52:17;;;;;;;2.40;1.70;;;23.60;35.40;;;;;;5114487;28;20196;-69
2022/06/06 11:55:18;;;;;;;2.17;1.98;;;25.20;35.20;;;;;;5114625;27;20201;-69
2022/06/06 11:58:26;;;;;;;2.00;1.90;;;25.50;33.00;;;;;;5127289;27;20192;-69
2022/06/06 12:01:10;;;;;;;4.00;2.22;;;25.10;29.80;;;;;;5087175;28;20208;-69
2022/06/06 12:04:05;;;;;;;2.35;1.80;;;24.60;29.30;;;;;;5113489;28;20205;-69
2022/06/06 12:07:05;;;;;;;1.60;1.50;;;24.40;27.00;;;;;;5093969;28;20228;-72
2022/06/06 12:09:47;;;;;;;2.35;1.40;;;25.30;25.60;;;;;;5113152;27;20201;-71
2022/06/06 12:12:49;;;;;;;1.73;1.20;;;25.70;23.70;;;;;;5108495;28;20288;-72
2022/06/06 12:15:49;;;;;;;2.03;1.83;;;25.70;22.20;;;;;;5094922;28;20720;-72
2022/06/06 12:18:40;;;;;;;1.92;1.70;;;25.90;24.00;;;;;;5103310;28;20655;-72
2022/06/06 12:21:29;;;;;;;1.58;1.38;;;26.50;24.20;;;;;;5095532;28;20198;-72
2022/06/06 12:24:22;;;;;;;2.05;1.10;;;25.40;18.20;;;;;;5099697;28;20659;-72
2022/06/06 12:27:07;;;;;;;2.22;1.30;;;24.80;23.10;;;;;;5093825;28;20585;-72
2022/06/06 12:29:51;;;;;;;2.33;1.58;;;25.30;23.20;;;;;;5098106;28;20333;-72
2022/06/06 12:32:39;;;;;;;1.60;1.50;;;25.00;23.60;;;;;;5108314;28;20232;-72
2022/06/06 12:35:12;;;;;;;2.17;1.48;;;25.90;24.10;;;;;;5094107;28;20658;-72
2022/06/06 12:37:49;;;;;;;1.60;1.50;;;26.00;22.20;;;;;;5104152;28;20287;-72
2022/06/06 12:40:24;;;;;;;2.13;1.92;;;25.80;20.90;;;;;;5112903;28;20197;-72
2022/06/06 12:43:02;;;;;;;1.83;1.50;;;25.90;19.00;;;;;;5107813;28;20210;-72
2022/06/06 12:45:57;;;;;;;1.52;1.42;;;26.10;21.00;;;;;;5111511;28;20212;-72
2022/06/06 12:48:57;;;;;;;1.40;1.30;;;26.50;22.90;;;;;;5108893;28;20246;-72
2022/06/06 12:51:37;;;;;;;1.38;1.27;;;25.70;18.60;;;;;;5111181;27;20200;-72
2022/06/06 12:54:23;;;;;;;1.60;1.50;;;26.00;20.90;;;;;;5111892;28;20226;-72
2022/06/06 12:56:55;;;;;;;1.88;1.77;;;26.30;21.70;;;;;;5103970;28;20537;-72
2022/06/06 12:59:40;;;;;;;1.60;1.50;;;26.30;19.80;;;;;;5112442;28;20235;-72
2022/06/06 13:02:28;;;;;;;1.50;1.40;;;26.40;20.00;;;;;;5100220;28;20647;-72
2022/06/06 13:05:12;;;;;;;2.70;1.55;;;26.50;17.20;;;;;;5091828;28;20205;-72
2022/06/06 13:08:10;;;;;;;1.25;1.20;;;26.50;17.40;;;;;;5092113;28;20221;-74
2022/06/06 13:10:53;;;;;;;2.03;1.08;;;26.50;18.70;;;;;;5071284;28;20712;-72
2022/06/06 13:13:44;;;;;;;1.70;1.23;;;26.60;19.90;;;;;;5091627;28;20247;-72
2022/06/06 13:16:20;;;;;;;1.50;1.40;;;26.10;17.60;;;;;;5091667;28;20206;-72
2022/06/06 13:19:04;;;;;;;4.65;3.13;;;26.80;21.50;;;;;;5091402;28;20240;-72
2022/06/06 13:21:43;;;;;;;1.50;1.40;;;26.90;20.20;;;;;;5092346;28;20209;-72
2022/06/06 13:24:27;;;;;;;2.03;1.20;;;27.20;16.60;;;;;;5089376;28;20719;-72
2022/06/06 13:26:55;;;;;;;2.75;1.10;;;26.10;15.70;;;;;;5090520;28;20636;-72
2022/06/06 13:29:29;;;;;;;1.30;1.10;;;25.70;16.50;;;;;;5090423;28;20233;-72
2022/06/06 13:32:07;;;;;;;1.20;1.10;;;25.10;18.10;;;;;;5108984;28;20204;-72
2022/06/06 13:34:48;;;;;;;1.45;0.93;;;24.10;16.90;;;;;;5108150;28;20205;-72
2022/06/06 13:37:25;;;;;;;1.17;1.10;;;24.20;19.10;;;;;;5091702;28;20252;-72
2022/06/06 13:40:14;;;;;;;1.10;1.10;;;24.10;21.20;;;;;;5111000;28;20192;-71
2022/06/06 13:43:01;;;;;;;1.90;1.77;;;24.30;22.80;;;;;;5107467;28;20692;-72
2022/06/06 13:45:35;;;;;;;2.05;1.42;;;23.80;22.70;;;;;;5106387;28;20233;-71
2022/06/06 13:48:33;;;;;;;1.27;1.17;;;23.90;25.00;;;;;;5120169;27;20311;-72
2022/06/06 13:51:11;;;;;;;1.33;1.23;;;23.60;24.20;;;;;;5094557;28;20197;-71
2022/06/06 13:54:01;;;;;;;1.48;1.30;;;23.70;26.20;;;;;;5113625;28;20246;-71
2022/06/06 13:56:46;;;;;;;1.05;1.02;;;23.60;25.50;;;;;;5087003;28;20211;-71
2022/06/06 13:59:38;;;;;;;1.58;0.90;;;24.00;24.70;;;;;;5107383;28;20201;-74
2022/06/06 14:02:16;;;;;;;0.93;0.90;;;24.20;23.90;;;;;;5090187;28;20205;-74
2022/06/06 14:05:03;;;;;;;6.30;1.30;;;24.60;24.50;;;;;;5090592;28;20273;-74
2022/06/06 14:08:08;;;;;;;1.02;0.70;;;24.70;23.70;;;;;;5095257;28;20232;-74
2022/06/06 14:10:44;;;;;;;0.73;0.73;;;23.80;26.00;;;;;;5102606;28;20254;-74